Time;durP1;ratioP1;P1;durP2;ratioP2;P2;SDS_P1;SDS_P2;PMS_P1;PMS_P2;Temp;Humidity;BMP_temperature;BMP_pressure;BME280_temperature;BME280_humidity;BME280_pressure;Samples;Min_cycle;Max_cycle;Signal;HPM_P1;HPM_P2
2023/06/10 00:00:01;;;;;;;9.75;6.18;;;;;;;24.89;37.55;101342.53;4987815;28;124109;-65
2023/06/10 00:02:39;;;;;;;8.13;6.15;;;;;;;24.83;37.62;101339.41;4989323;28;114817;-65
2023/06/10 00:05:10;;;;;;;8.15;6.65;;;;;;;24.80;37.73;101338.84;4989581;28;114256;-65
2023/06/10 00:07:38;;;;;;;10.02;6.40;;;;;;;24.76;37.50;101342.88;4984177;28;124544;-65
2023/06/10 00:10:06;;;;;;;7.65;6.25;;;;;;;24.73;37.97;101345.84;4987438;28;124009;-65
2023/06/10 00:12:38;;;;;;;10.57;6.55;;;;;;;24.68;37.50;101351.75;4987744;28;114266;-65
2023/06/10 00:15:06;;;;;;;8.63;6.57;;;;;;;24.65;37.91;101352.88;4987073;28;114440;-65
2023/06/10 00:17:34;;;;;;;9.77;6.88;;;;;;;24.61;38.07;101350.63;4989725;28;123598;-65
2023/06/10 00:20:05;;;;;;;7.68;6.35;;;;;;;24.58;38.06;101346.38;4987156;28;124391;-65
2023/06/10 00:22:32;;;;;;;9.55;6.93;;;;;;;24.55;38.05;101346.66;4987675;28;114756;-65
2023/06/10 00:24:59;;;;;;;6.88;6.18;;;;;;;24.51;38.45;101345.22;4989622;28;112765;-65
2023/06/10 00:27:31;;;;;;;7.28;6.38;;;;;;;24.45;38.34;101346.66;4988825;28;125470;-65
2023/06/10 00:30:01;;;;;;;8.23;6.72;;;;;;;24.44;38.41;101344.09;4989232;28;123814;-65
2023/06/10 00:32:31;;;;;;;9.50;6.53;;;;;;;24.43;38.49;101342.38;4989191;28;114474;-65
2023/06/10 00:34:58;;;;;;;8.63;7.63;;;;;;;24.40;38.68;101348.09;4988736;28;114047;-65
2023/06/10 00:37:25;;;;;;;8.80;7.25;;;;;;;24.37;38.70;101351.09;4988513;28;123850;-65
2023/06/10 00:39:53;;;;;;;9.02;6.82;;;;;;;24.33;38.81;101363.22;4987497;28;124048;-65
2023/06/10 00:42:22;;;;;;;10.05;6.38;;;;;;;24.33;38.83;101360.50;4989423;28;113162;-65
2023/06/10 00:44:56;;;;;;;8.10;7.00;;;;;;;24.29;38.86;101358.09;4989317;28;114274;-65
2023/06/10 00:47:25;;;;;;;8.63;7.55;;;;;;;24.27;38.85;101359.25;4992057;28;123139;-65
2023/06/10 00:49:53;;;;;;;12.95;8.10;;;;;;;24.21;39.02;101355.25;4992035;28;124271;-65
2023/06/10 00:52:24;;;;;;;10.98;7.32;;;;;;;24.15;39.11;101360.41;4991303;28;114592;-65
2023/06/10 00:54:51;;;;;;;9.20;7.50;;;;;;;24.07;39.17;101358.41;4991684;28;112959;-66
2023/06/10 00:57:18;;;;;;;8.88;6.93;;;;;;;24.00;39.47;101357.31;4989911;28;123909;-65
2023/06/10 00:59:48;;;;;;;10.85;7.22;;;;;;;23.94;39.74;101365.97;4990536;28;125189;-65
2023/06/10 01:02:16;;;;;;;12.32;7.45;;;;;;;23.85;39.87;101368.56;4990566;28;114730;-65
2023/06/10 01:04:44;;;;;;;8.25;6.93;;;;;;;23.78;39.92;101367.38;4992499;28;113805;-63
2023/06/10 01:07:24;;;;;;;9.60;7.53;;;;;;;23.72;40.14;101359.84;4990281;28;123975;-63
2023/06/10 01:09:58;;;;;;;8.45;7.00;;;;;;;23.66;40.29;101365.84;4990963;28;124411;-63
2023/06/10 01:12:50;;;;;;;10.77;7.93;;;;;;;23.58;40.29;101363.81;4990856;28;114604;-63
2023/06/10 01:15:18;;;;;;;9.35;7.65;;;;;;;23.55;40.48;101363.25;4991764;28;112566;-62
2023/06/10 01:18:09;;;;;;;12.60;7.55;;;;;;;23.49;40.50;101365.53;4990332;28;124826;-64
2023/06/10 01:20:41;;;;;;;8.85;7.95;;;;;;;23.46;40.70;101371.22;4988752;28;124712;-62
2023/06/10 01:23:09;;;;;;;10.10;8.20;;;;;;;23.42;40.89;101363.53;4976038;28;114265;-62
2023/06/10 01:25:44;;;;;;;9.80;7.95;;;;;;;23.37;41.22;101365.78;4990906;28;115568;-63
2023/06/10 01:28:37;;;;;;;10.38;8.25;;;;;;;23.32;41.11;101369.78;4992145;28;124146;-63
2023/06/10 01:31:33;;;;;;;9.18;8.23;;;;;;;23.28;40.96;101367.47;4984132;28;123365;-63
2023/06/10 01:34:05;;;;;;;9.57;8.10;;;;;;;23.25;41.23;101370.47;4991410;28;114176;-64
2023/06/10 01:36:34;;;;;;;9.95;8.10;;;;;;;23.21;41.41;101367.19;4978768;28;113909;-63
2023/06/10 01:39:04;;;;;;;12.77;8.23;;;;;;;23.17;41.37;101364.88;4990209;28;123934;-63
2023/06/10 01:41:32;;;;;;;10.52;8.43;;;;;;;23.15;41.47;101369.56;4989848;28;123101;-63
2023/06/10 01:43:59;;;;;;;10.82;8.52;;;;;;;23.11;41.58;101372.56;4990614;28;113331;-63
2023/06/10 01:46:27;;;;;;;11.13;8.10;;;;;;;23.09;41.76;101370.97;4989702;28;114769;-64
2023/06/10 01:48:54;;;;;;;11.57;8.23;;;;;;;23.06;41.80;101369.41;4990252;28;124996;-63
2023/06/10 01:51:21;;;;;;;10.55;8.20;;;;;;;23.06;41.89;101373.97;4991772;28;124990;-64
2023/06/10 01:53:48;;;;;;;12.75;9.00;;;;;;;23.04;42.02;101371.41;4990236;28;113855;-64
2023/06/10 01:56:19;;;;;;;11.50;9.18;;;;;;;23.02;42.06;101370.66;4991123;28;113221;-63
2023/06/10 01:58:46;;;;;;;11.65;8.80;;;;;;;22.99;42.09;101368.22;4990873;28;122806;-63
2023/06/10 02:01:14;;;;;;;12.00;8.55;;;;;;;22.95;42.14;101372.19;4991157;28;122868;-63
2023/06/10 02:03:41;;;;;;;11.98;7.78;;;;;;;22.93;42.26;101368.78;4990579;28;113232;-63
2023/06/10 02:06:09;;;;;;;10.07;8.93;;;;;;;22.90;42.31;101379.84;4991982;28;113456;-64
2023/06/10 02:08:36;;;;;;;13.00;8.70;;;;;;;22.85;42.35;101376.69;4991180;28;123812;-63
2023/06/10 02:11:03;;;;;;;10.02;8.73;;;;;;;22.81;42.46;101375.25;4990612;28;122898;-63
2023/06/10 02:13:31;;;;;;;11.40;9.38;;;;;;;22.78;42.78;101375.56;4989691;28;114246;-63
2023/06/10 02:15:59;;;;;;;10.20;8.60;;;;;;;22.75;42.64;101376.66;4991389;28;114175;-63
2023/06/10 02:18:29;;;;;;;11.90;8.95;;;;;;;22.72;42.71;101377.78;4985199;28;124826;-64
2023/06/10 02:20:56;;;;;;;9.52;8.45;;;;;;;22.71;42.72;101381.47;4976753;28;122930;-63
2023/06/10 02:23:23;;;;;;;10.77;8.50;;;;;;;22.70;42.73;101379.78;4990337;28;114111;-63
2023/06/10 02:25:50;;;;;;;11.55;9.02;;;;;;;22.68;42.81;101381.75;4989683;28;114060;-64
2023/06/10 02:28:18;;;;;;;10.43;9.07;;;;;;;22.65;42.94;101382.03;4989348;28;124475;-65
2023/06/10 02:30:46;;;;;;;9.57;8.57;;;;;;;22.64;42.90;101380.31;4992024;28;123466;-64
2023/06/10 02:33:14;;;;;;;9.68;8.18;;;;;;;22.64;43.00;101380.31;4990531;28;112939;-64
2023/06/10 02:35:43;;;;;;;11.13;8.50;;;;;;;22.63;42.90;101378.59;4990737;28;113162;-65
2023/06/10 02:38:10;;;;;;;12.30;8.30;;;;;;;22.61;43.04;101380.59;4977580;28;123087;-65
2023/06/10 02:40:37;;;;;;;11.82;8.20;;;;;;;22.58;43.05;101380.84;4990581;28;123584;-65
2023/06/10 02:43:04;;;;;;;11.15;8.48;;;;;;;22.55;43.04;101381.97;4989743;28;114486;-65
2023/06/10 02:45:32;;;;;;;9.98;8.32;;;;;;;22.52;43.13;101386.78;4990284;28;113225;-65
2023/06/10 02:48:02;;;;;;;11.93;8.60;;;;;;;22.50;43.10;101377.97;4990166;28;123863;-65
2023/06/10 02:50:30;;;;;;;11.48;8.75;;;;;;;22.48;43.11;101382.66;4990462;28;123415;-65
2023/06/10 02:53:06;;;;;;;9.93;8.73;;;;;;;22.46;43.19;101387.31;4980247;28;116460;-65
2023/06/10 02:55:35;;;;;;;12.40;8.55;;;;;;;22.43;43.32;101382.19;4990723;28;113186;-64
2023/06/10 02:58:06;;;;;;;10.40;8.80;;;;;;;22.40;43.42;101387.88;4990479;28;123030;-64
2023/06/10 03:00:35;;;;;;;10.77;9.15;;;;;;;22.38;43.29;101384.41;4989706;28;123334;-64
2023/06/10 03:03:04;;;;;;;12.10;9.00;;;;;;;22.35;43.35;101386.41;4989784;28;114547;-64
2023/06/10 03:05:40;;;;;;;12.82;8.82;;;;;;;22.34;43.38;101379.31;4988734;28;114866;-65
2023/06/10 03:08:07;;;;;;;11.05;8.75;;;;;;;22.32;43.33;101386.69;4989420;28;123403;-65
2023/06/10 03:10:40;;;;;;;15.02;8.77;;;;;;;22.27;43.34;101388.91;4989310;28;124423;-66
2023/06/10 03:13:09;;;;;;;11.63;9.20;;;;;;;22.24;43.48;101389.13;4978459;28;113453;-65
2023/06/10 03:15:40;;;;;;;10.10;8.85;;;;;;;22.21;43.45;101389.41;4989565;28;113216;-65
2023/06/10 03:18:11;;;;;;;11.82;9.10;;;;;;;22.17;43.45;101387.97;4989118;28;123111;-64
2023/06/10 03:20:39;;;;;;;12.27;8.90;;;;;;;22.13;43.55;101391.91;4972276;28;123060;-65
2023/06/10 03:23:09;;;;;;;12.73;9.45;;;;;;;22.12;43.61;101390.19;4990096;28;113138;-65
2023/06/10 03:25:37;;;;;;;11.55;8.95;;;;;;;22.09;43.61;101390.44;4988942;28;113362;-65
2023/06/10 03:28:04;;;;;;;10.98;8.55;;;;;;;22.07;43.59;101392.44;4988517;28;123257;-66
2023/06/10 03:30:34;;;;;;;10.20;8.40;;;;;;;22.03;43.71;101397.22;4989729;28;123574;-66
2023/06/10 03:33:01;;;;;;;11.50;9.02;;;;;;;22.01;43.68;101395.66;4989573;28;114357;-66
2023/06/10 03:35:31;;;;;;;9.88;8.20;;;;;;;21.99;43.67;101389.53;4989543;28;113787;-65
2023/06/10 03:37:59;;;;;;;13.63;9.00;;;;;;;21.97;43.67;101398.59;4978244;28;124873;-65
2023/06/10 03:40:26;;;;;;;10.10;8.30;;;;;;;21.96;43.76;101402.31;4990014;28;124093;-65
2023/06/10 03:42:54;;;;;;;12.43;8.68;;;;;;;21.94;43.82;101404.28;4973069;28;113422;-65
2023/06/10 03:45:22;;;;;;;9.75;7.47;;;;;;;21.93;43.91;101416.03;4988151;28;114201;-65
2023/06/10 03:47:50;;;;;;;8.40;7.38;;;;;;;21.92;43.91;101411.59;4989715;28;123682;-64
2023/06/10 03:50:23;;;;;;;9.32;7.57;;;;;;;21.92;43.90;101406.22;4989659;28;123331;-64
2023/06/10 03:52:50;;;;;;;10.95;7.60;;;;;;;21.92;43.95;101419.69;4988067;28;114394;-65
2023/06/10 03:55:23;;;;;;;10.40;7.95;;;;;;;21.90;43.91;101418.97;4989003;28;113800;-65
2023/06/10 03:57:50;;;;;;;9.93;7.70;;;;;;;21.87;43.92;101419.25;4989409;28;123759;-65
2023/06/10 04:00:21;;;;;;;10.20;8.13;;;;;;;21.86;44.14;101417.53;4989664;28;123000;-65
2023/06/10 04:02:49;;;;;;;10.38;7.55;;;;;;;21.84;43.99;101419.50;4991014;28;114397;-65
2023/06/10 04:05:28;;;;;;;10.02;7.45;;;;;;;21.83;44.09;101417.81;4989178;28;114314;-65
2023/06/10 04:07:57;;;;;;;9.82;7.75;;;;;;;21.82;44.12;101426.00;4990168;28;123424;-65
2023/06/10 04:10:25;;;;;;;10.68;7.40;;;;;;;21.81;44.08;101419.75;4989687;28;122771;-65
2023/06/10 04:12:53;;;;;;;10.32;7.40;;;;;;;21.80;44.14;101423.44;4986834;28;113551;-65
2023/06/10 04:15:23;;;;;;;10.82;7.25;;;;;;;21.81;44.21;101417.03;4988916;28;113593;-63
2023/06/10 04:17:50;;;;;;;12.35;7.57;;;;;;;21.81;44.17;101425.13;4988705;28;123326;-63
2023/06/10 04:20:21;;;;;;;10.65;7.75;;;;;;;21.80;44.22;101428.84;4988888;28;123209;-63
2023/06/10 04:22:49;;;;;;;11.20;7.47;;;;;;;21.81;44.36;101435.91;4989536;28;113539;-63
2023/06/10 04:25:16;;;;;;;11.02;6.90;;;;;;;21.81;44.42;101433.22;4987785;28;113708;-63
2023/06/10 04:27:44;;;;;;;11.88;7.60;;;;;;;21.83;44.46;101433.09;4989867;28;123425;-64
2023/06/10 04:30:12;;;;;;;9.65;7.28;;;;;;;21.84;44.45;101437.53;4987016;28;123964;-65
2023/06/10 04:32:40;;;;;;;9.90;6.55;;;;;;;21.85;44.44;101437.41;4989263;28;113646;-65
2023/06/10 04:35:14;;;;;;;10.13;7.10;;;;;;;21.85;44.43;101432.00;4976385;28;113104;-65
2023/06/10 04:37:42;;;;;;;11.55;7.15;;;;;;;21.86;44.36;101433.72;4989097;28;123733;-65
2023/06/10 04:40:11;;;;;;;12.05;7.20;;;;;;;21.87;44.36;101440.81;4989509;28;123145;-65
2023/06/10 04:42:38;;;;;;;10.07;7.03;;;;;;;21.90;44.71;101440.56;4988666;28;114341;-64
2023/06/10 04:45:06;;;;;;;8.98;6.78;;;;;;;21.94;44.51;101442.03;4988899;28;114664;-64
2023/06/10 04:47:35;;;;;;;12.55;7.07;;;;;;;22.00;44.70;101439.78;4988821;28;123162;-64
2023/06/10 04:50:03;;;;;;;12.77;7.07;;;;;;;22.05;44.69;101442.97;4989291;28;123867;-65
2023/06/10 04:52:30;;;;;;;9.93;7.20;;;;;;;22.11;44.77;101442.44;4987250;28;114271;-65
2023/06/10 04:54:58;;;;;;;10.20;6.78;;;;;;;22.19;44.66;101439.09;4989738;28;115257;-64
2023/06/10 04:57:25;;;;;;;9.73;6.75;;;;;;;22.26;44.60;101435.75;4984427;28;123916;-65
2023/06/10 04:59:53;;;;;;;12.90;7.28;;;;;;;22.34;44.54;101438.69;4987363;28;124035;-65
2023/06/10 05:02:20;;;;;;;11.93;7.40;;;;;;;22.42;44.47;101442.56;4972363;28;113051;-64
2023/06/10 05:04:48;;;;;;;9.40;6.93;;;;;;;22.47;44.49;101437.59;4989626;28;114718;-65
2023/06/10 05:07:15;;;;;;;9.80;7.32;;;;;;;22.52;44.47;101440.78;4988621;28;125015;-64
2023/06/10 05:09:42;;;;;;;10.85;7.20;;;;;;;22.59;44.33;101441.97;4988370;28;125004;-65
2023/06/10 05:12:09;;;;;;;9.65;6.80;;;;;;;22.63;44.27;101442.56;4976323;28;114171;-64
2023/06/10 05:14:37;;;;;;;12.20;7.55;;;;;;;22.65;44.21;101446.81;4988369;28;114418;-66
2023/06/10 05:17:06;;;;;;;13.60;7.07;;;;;;;22.68;44.33;101446.56;4987618;28;124127;-65
2023/06/10 05:19:33;;;;;;;10.02;6.75;;;;;;;22.74;44.17;101446.03;4988365;28;124425;-65
2023/06/10 05:22:02;;;;;;;10.20;7.05;;;;;;;22.79;44.08;101447.47;4989397;28;114595;-65
2023/06/10 05:24:29;;;;;;;11.52;7.05;;;;;;;22.83;44.16;101443.50;4988130;28;112880;-66
2023/06/10 05:26:56;;;;;;;11.77;6.70;;;;;;;22.88;44.18;101449.38;4987482;28;124037;-64
2023/06/10 05:29:23;;;;;;;10.75;6.97;;;;;;;22.93;44.05;101449.81;4986983;28;123636;-64
2023/06/10 05:31:51;;;;;;;10.85;6.95;;;;;;;23.00;43.80;101451.00;4988756;28;115310;-64
2023/06/10 05:34:18;;;;;;;9.93;6.80;;;;;;;23.04;44.03;101441.66;4992135;28;114854;-64
2023/06/10 05:36:45;;;;;;;10.55;6.82;;;;;;;23.08;43.95;101445.78;4989584;28;124027;-64
2023/06/10 05:39:12;;;;;;;10.32;7.20;;;;;;;23.15;43.84;101453.34;4990155;28;123707;-64
2023/06/10 05:41:40;;;;;;;13.15;6.63;;;;;;;23.19;43.91;101446.66;4990177;28;113544;-64
2023/06/10 05:44:07;;;;;;;9.60;7.20;;;;;;;23.28;43.77;101453.97;4991220;28;114094;-64
2023/06/10 05:46:34;;;;;;;8.05;6.60;;;;;;;23.32;43.60;101440.06;4992025;28;124489;-64
2023/06/10 05:49:02;;;;;;;8.93;6.20;;;;;;;23.37;43.39;101447.72;4976264;28;122816;-64
2023/06/10 05:51:29;;;;;;;9.15;6.80;;;;;;;23.40;43.46;101452.88;4990021;28;114419;-64
2023/06/10 05:53:57;;;;;;;9.82;6.53;;;;;;;23.44;43.16;101451.59;4990971;28;114428;-64
2023/06/10 05:56:25;;;;;;;8.82;6.70;;;;;;;23.48;43.29;101461.16;4989549;28;124234;-64
2023/06/10 05:58:53;;;;;;;9.52;6.35;;;;;;;23.56;43.23;101457.75;4989931;28;124195;-65
2023/06/10 06:01:20;;;;;;;9.05;7.03;;;;;;;23.64;43.22;101459.75;4989391;28;114368;-64
2023/06/10 06:03:47;;;;;;;7.72;5.90;;;;;;;23.69;43.04;101457.50;4990538;28;113786;-64
2023/06/10 06:06:14;;;;;;;10.18;6.38;;;;;;;23.76;42.92;101458.66;4988463;28;124083;-64
2023/06/10 06:08:42;;;;;;;10.57;6.35;;;;;;;23.83;42.93;101459.84;4990193;28;124156;-64
2023/06/10 06:11:09;;;;;;;11.38;6.40;;;;;;;23.95;42.85;101454.28;4989896;28;114282;-64
2023/06/10 06:13:37;;;;;;;9.63;5.75;;;;;;;24.05;42.50;101457.84;4990121;28;113723;-64
2023/06/10 06:16:13;;;;;;;10.27;5.75;;;;;;;24.11;42.55;101451.88;4991673;28;124194;-64
2023/06/10 06:18:40;;;;;;;10.20;5.95;;;;;;;24.19;42.37;101449.28;4990233;28;122945;-64
2023/06/10 06:21:07;;;;;;;9.30;5.85;;;;;;;24.27;42.48;101446.72;4990009;28;115165;-64
2023/06/10 06:23:35;;;;;;;10.30;5.63;;;;;;;24.38;42.47;101450.28;4989740;28;114911;-63
2023/06/10 06:26:02;;;;;;;7.93;5.75;;;;;;;24.49;42.16;101455.53;4990045;28;124734;-63
2023/06/10 06:28:30;;;;;;;8.52;6.20;;;;;;;24.60;42.04;101460.81;4989339;28;124410;-63
2023/06/10 06:30:58;;;;;;;9.38;6.05;;;;;;;24.72;41.99;101466.06;4987006;28;114392;-64
2023/06/10 06:33:26;;;;;;;9.68;5.97;;;;;;;24.80;41.35;101458.91;4996683;28;114329;-63
2023/06/10 06:35:53;;;;;;;8.98;5.70;;;;;;;24.89;41.33;101461.75;4982273;28;124726;-63
2023/06/10 06:38:20;;;;;;;9.73;6.00;;;;;;;24.93;41.28;101453.16;4984871;28;123732;-64
2023/06/10 06:40:48;;;;;;;10.80;5.78;;;;;;;25.01;41.49;101455.97;4990934;28;114062;-63
2023/06/10 06:43:16;;;;;;;8.68;5.65;;;;;;;25.11;40.91;101455.97;4986878;28;113694;-63
2023/06/10 06:45:57;;;;;;;8.45;5.88;;;;;;;25.21;40.76;101455.91;4986779;28;124037;-63
2023/06/10 06:48:25;;;;;;;9.50;5.93;;;;;;;25.30;40.66;101459.59;4988124;28;124028;-63
2023/06/10 06:50:57;;;;;;;8.57;5.72;;;;;;;25.35;40.58;101455.41;4987875;28;113858;-64
2023/06/10 06:53:45;;;;;;;7.40;5.60;;;;;;;25.41;40.52;101462.97;4987230;28;114390;-64
2023/06/10 06:56:14;;;;;;;10.27;5.72;;;;;;;25.48;40.41;101456.94;4971888;28;124424;-64
2023/06/10 06:58:44;;;;;;;8.27;5.45;;;;;;;25.58;40.16;101463.13;4989924;28;124095;-64
2023/06/10 07:01:11;;;;;;;9.30;5.30;;;;;;;25.72;40.32;101470.78;4988491;28;114344;-66
2023/06/10 07:03:38;;;;;;;7.13;5.45;;;;;;;25.88;40.25;101466.50;4989962;28;114241;-65
2023/06/10 07:06:05;;;;;;;7.90;5.78;;;;;;;26.00;39.95;101468.03;4989947;28;123912;-65
2023/06/10 07:08:33;;;;;;;9.32;5.10;;;;;;;26.10;39.85;101474.22;4991570;28;122784;-66
2023/06/10 07:11:00;;;;;;;8.68;5.47;;;;;;;26.21;39.44;101471.28;4991380;28;115507;-65
2023/06/10 07:13:27;;;;;;;8.82;5.85;;;;;;;26.32;39.27;101470.19;4989524;28;114738;-65
2023/06/10 07:15:55;;;;;;;8.50;5.45;;;;;;;26.38;38.97;101471.44;4988379;28;123857;-65
2023/06/10 07:18:22;;;;;;;11.23;5.53;;;;;;;26.46;39.28;101468.75;4989460;28;122710;-65
2023/06/10 07:20:49;;;;;;;7.90;5.70;;;;;;;26.56;38.83;101474.97;4988632;28;114133;-65
2023/06/10 07:23:18;;;;;;;7.85;5.32;;;;;;;26.64;38.68;101470.63;4990601;28;113174;-66
2023/06/10 07:25:45;;;;;;;8.13;5.72;;;;;;;26.71;38.38;101477.13;4987465;28;123844;-66
2023/06/10 07:28:12;;;;;;;8.10;5.57;;;;;;;26.75;38.64;101473.94;4988530;28;124643;-66
2023/06/10 07:30:40;;;;;;;10.00;5.30;;;;;;;26.85;38.11;101478.41;4988321;28;114645;-67
2023/06/10 07:33:08;;;;;;;8.90;5.40;;;;;;;26.96;38.59;101476.28;4987489;28;114028;-66
2023/06/10 07:35:35;;;;;;;12.30;5.65;;;;;;;27.09;38.05;101480.44;4986125;28;124176;-66
2023/06/10 07:38:02;;;;;;;7.65;5.05;;;;;;;27.22;38.42;101480.84;4987227;28;123903;-66
2023/06/10 07:40:29;;;;;;;9.45;5.30;;;;;;;27.37;38.13;101481.94;4987281;28;114162;-66
2023/06/10 07:43:00;;;;;;;8.90;5.30;;;;;;;27.50;37.64;101486.06;4988438;28;114550;-66
2023/06/10 07:45:28;;;;;;;8.13;5.15;;;;;;;27.62;37.45;101487.47;4988694;28;125338;-66
2023/06/10 07:47:55;;;;;;;9.18;5.13;;;;;;;27.75;37.32;101482.41;4987918;28;123974;-66
2023/06/10 07:50:23;;;;;;;10.45;5.05;;;;;;;27.88;37.14;101483.81;4988419;28;114402;-66
2023/06/10 07:52:50;;;;;;;8.65;5.30;;;;;;;28.00;36.67;101485.19;4990674;28;113055;-65
2023/06/10 07:55:17;;;;;;;8.05;5.32;;;;;;;28.08;36.71;101481.63;4988496;28;123464;-64
2023/06/10 07:57:45;;;;;;;7.15;4.93;;;;;;;28.17;36.69;101479.78;4987812;28;124088;-64
2023/06/10 08:00:12;;;;;;;6.85;4.88;;;;;;;28.22;36.39;101482.81;4987495;28;115817;-66
2023/06/10 08:02:40;;;;;;;6.97;5.25;;;;;;;28.30;36.68;101480.13;4978985;28;114664;-66
2023/06/10 08:05:07;;;;;;;9.02;5.22;;;;;;;28.39;36.48;101479.09;4984981;28;123855;-66
2023/06/10 08:07:35;;;;;;;9.63;5.55;;;;;;;28.42;36.37;101484.19;4984794;28;124044;-68
2023/06/10 08:10:07;;;;;;;11.27;5.75;;;;;;;28.46;36.22;101480.13;4985642;28;114261;-67
2023/06/10 08:12:34;;;;;;;6.50;4.95;;;;;;;28.57;35.88;101487.09;4986375;28;114370;-66
2023/06/10 08:15:04;;;;;;;7.45;5.38;;;;;;;28.64;35.86;101479.09;4985011;28;125229;-66
2023/06/10 08:17:31;;;;;;;9.75;5.18;;;;;;;28.69;35.61;101474.00;4987071;28;123683;-66
2023/06/10 08:19:58;;;;;;;7.32;4.93;;;;;;;28.75;35.59;101481.47;4987022;28;114495;-66
2023/06/10 08:22:26;;;;;;;7.38;5.00;;;;;;;28.83;35.54;101481.44;4988663;28;114630;-66
2023/06/10 08:24:53;;;;;;;8.13;5.05;;;;;;;28.90;35.31;101477.00;4987548;28;123464;-66
2023/06/10 08:27:21;;;;;;;6.78;5.22;;;;;;;28.96;35.22;101480.91;4989180;28;122898;-67
2023/06/10 08:29:48;;;;;;;9.60;4.82;;;;;;;29.02;35.27;101473.91;4990650;28;114933;-66
2023/06/10 08:32:16;;;;;;;10.00;5.55;;;;;;;29.09;35.13;101480.38;4987747;28;114076;-66
2023/06/10 08:34:43;;;;;;;8.10;4.95;;;;;;;29.18;35.08;101479.34;4989453;28;123896;-66
2023/06/10 08:37:10;;;;;;;5.90;4.65;;;;;;;29.25;34.89;101468.56;4987435;28;124244;-66
2023/06/10 08:39:37;;;;;;;6.95;5.10;;;;;;;29.33;34.73;101464.94;4987963;28;114599;-66
2023/06/10 08:42:17;;;;;;;8.18;4.93;;;;;;;29.40;34.19;101471.41;4988311;28;113898;-66
2023/06/10 08:44:46;;;;;;;7.55;4.93;;;;;;;29.46;34.52;101470.66;4988666;28;124549;-66
2023/06/10 08:47:15;;;;;;;8.82;4.88;;;;;;;29.55;34.55;101475.06;4987657;28;123867;-66
2023/06/10 08:49:46;;;;;;;8.98;5.10;;;;;;;29.64;34.42;101479.44;4988383;28;115942;-66
2023/06/10 08:52:18;;;;;;;7.20;5.10;;;;;;;29.74;34.13;101472.94;4979090;28;114975;-64
2023/06/10 08:54:59;;;;;;;9.13;4.93;;;;;;;29.78;34.11;101474.28;4987118;28;124798;-64
2023/06/10 08:57:27;;;;;;;7.13;4.85;;;;;;;29.85;34.39;101480.72;4987060;28;123679;-64
2023/06/10 08:59:56;;;;;;;6.45;4.60;;;;;;;29.93;33.83;101477.94;4987451;28;114930;-64
2023/06/10 09:02:24;;;;;;;6.90;4.85;;;;;;;29.99;33.92;101477.22;4975922;28;113857;-64
2023/06/10 09:04:55;;;;;;;8.73;4.97;;;;;;;30.13;34.24;101474.72;4988099;28;124417;-64
2023/06/10 09:07:23;;;;;;;6.75;4.70;;;;;;;30.28;33.96;101481.09;4992277;28;123548;-65
2023/06/10 09:09:53;;;;;;;8.68;4.63;;;;;;;30.40;33.60;101474.19;4976805;28;113551;-64
2023/06/10 09:12:20;;;;;;;7.93;4.45;;;;;;;30.49;33.66;101476.84;4991431;28;113901;-64
2023/06/10 09:14:48;;;;;;;8.25;4.97;;;;;;;30.57;32.92;101474.03;4992067;28;124766;-64
2023/06/10 09:17:16;;;;;;;8.38;4.95;;;;;;;30.62;33.28;101471.59;4990078;28;124106;-64
2023/06/10 09:19:44;;;;;;;9.57;4.60;;;;;;;30.71;33.46;101470.47;4990516;28;114278;-64
2023/06/10 09:22:11;;;;;;;7.03;4.68;;;;;;;30.78;32.68;101474.16;4990572;28;113953;-64
2023/06/10 09:24:39;;;;;;;10.07;4.63;;;;;;;30.82;33.06;101467.28;4992272;28;123922;-65
2023/06/10 09:27:08;;;;;;;8.88;4.80;;;;;;;30.90;32.73;101457.28;4989100;28;124079;-64
2023/06/10 09:29:50;;;;;;;10.52;5.03;;;;;;;30.99;32.90;101467.13;4990703;28;114097;-64
2023/06/10 09:32:18;;;;;;;7.53;4.90;;;;;;;31.05;32.61;101461.75;4990949;28;114157;-64
2023/06/10 09:34:46;;;;;;;7.50;4.70;;;;;;;31.15;32.82;101461.44;4992102;28;124122;-64
2023/06/10 09:37:20;;;;;;;9.13;5.07;;;;;;;31.26;33.01;101462.84;4990256;28;123963;-64
2023/06/10 09:40:08;;;;;;;6.05;4.53;;;;;;;31.37;32.64;101458.78;4985489;28;115918;-64
2023/06/10 09:42:38;;;;;;;7.00;4.57;;;;;;;31.42;32.10;101459.06;4984576;28;114951;-64
2023/06/10 09:45:07;;;;;;;6.30;4.80;;;;;;;31.44;32.53;101459.72;4989404;28;124372;-64
2023/06/10 09:47:35;;;;;;;10.70;5.10;;;;;;;31.49;32.08;101457.28;4988505;28;124466;-64
2023/06/10 09:50:02;;;;;;;7.18;5.10;;;;;;;31.58;32.06;101455.28;4991463;28;114493;-64
2023/06/10 09:52:29;;;;;;;8.73;4.72;;;;;;;31.65;32.58;101449.84;4989071;28;113797;-64
2023/06/10 09:55:01;;;;;;;10.30;5.18;;;;;;;31.74;31.76;101456.91;4992146;28;124505;-64
2023/06/10 09:57:35;;;;;;;5.57;4.57;;;;;;;31.79;31.51;101451.69;4989006;28;124469;-64
2023/06/10 10:00:08;;;;;;;7.40;4.95;;;;;;;31.84;31.46;101454.72;4991962;28;113368;-64
2023/06/10 10:02:48;;;;;;;5.97;4.70;;;;;;;31.85;31.57;101456.41;4991874;28;113850;-65
2023/06/10 10:05:17;;;;;;;6.18;4.53;;;;;;;31.87;31.86;101454.31;4987976;28;124363;-64
2023/06/10 10:07:45;;;;;;;5.72;4.78;;;;;;;31.93;31.65;101448.06;4991169;28;124751;-64
2023/06/10 10:10:14;;;;;;;7.18;4.70;;;;;;;32.03;31.41;101452.41;4988206;28;114543;-64
2023/06/10 10:12:42;;;;;;;6.32;4.40;;;;;;;32.10;31.23;101453.28;4985549;28;114367;-64
2023/06/10 10:15:11;;;;;;;12.05;5.25;;;;;;;32.19;30.94;101441.16;4988280;28;125237;-64
2023/06/10 10:17:51;;;;;;;7.45;5.32;;;;;;;32.24;30.74;101444.16;4987232;28;123904;-64
2023/06/10 10:20:26;;;;;;;6.45;4.43;;;;;;;32.25;30.44;101445.88;4991375;28;113626;-64
2023/06/10 10:22:57;;;;;;;6.90;5.22;;;;;;;32.31;30.70;101439.56;4990360;28;113906;-65
2023/06/10 10:25:28;;;;;;;7.18;4.82;;;;;;;32.34;30.04;101439.19;4989281;28;125629;-64
2023/06/10 10:28:11;;;;;;;7.05;4.93;;;;;;;32.36;29.57;101437.09;4988326;28;123966;-64
2023/06/10 10:30:48;;;;;;;7.22;4.70;;;;;;;32.38;30.00;101445.97;4990715;28;114256;-64
2023/06/10 10:33:22;;;;;;;7.88;5.00;;;;;;;32.46;29.94;101441.38;4976581;28;114214;-64
2023/06/10 10:35:51;;;;;;;6.30;4.78;;;;;;;32.55;30.42;101437.41;4989276;28;123986;-64
2023/06/10 10:38:19;;;;;;;6.47;4.97;;;;;;;32.65;30.20;101434.38;4988665;28;123836;-64
2023/06/10 10:40:48;;;;;;;9.05;4.70;;;;;;;32.75;29.69;101434.84;4989522;28;115079;-64
2023/06/10 10:43:16;;;;;;;8.82;4.85;;;;;;;32.81;29.55;101433.19;4989293;28;114051;-64
2023/06/10 10:45:46;;;;;;;6.80;4.43;;;;;;;32.83;29.22;101425.59;4988789;28;126045;-64
2023/06/10 10:48:14;;;;;;;5.78;4.68;;;;;;;32.83;28.84;101425.59;4985591;28;123906;-64
2023/06/10 10:50:42;;;;;;;5.55;4.35;;;;;;;32.86;29.20;101430.69;4985496;28;113095;-64
2023/06/10 10:53:09;;;;;;;5.25;4.30;;;;;;;32.94;28.93;101422.28;4985119;28;114055;-64
2023/06/10 10:55:36;;;;;;;6.70;4.53;;;;;;;32.99;28.83;101425.28;4988378;28;123828;-64
2023/06/10 10:58:06;;;;;;;6.22;4.63;;;;;;;33.04;28.52;101428.28;4987598;28;124556;-64
2023/06/10 11:00:35;;;;;;;7.07;4.53;;;;;;;33.04;28.61;101422.78;4984061;28;114187;-66
2023/06/10 11:03:02;;;;;;;5.75;4.30;;;;;;;33.01;28.57;101417.69;4982553;28;113780;-67
2023/06/10 11:05:44;;;;;;;8.10;4.93;;;;;;;33.03;28.39;101421.06;4989074;28;123331;-67
2023/06/10 11:08:11;;;;;;;6.40;4.43;;;;;;;33.11;28.65;101418.16;4984948;28;124287;-67
2023/06/10 11:10:40;;;;;;;5.88;4.07;;;;;;;33.17;28.37;101414.63;4984629;28;114342;-67
2023/06/10 11:13:15;;;;;;;5.93;4.32;;;;;;;33.25;27.86;101410.03;4984123;28;114616;-67
2023/06/10 11:15:46;;;;;;;;;;;;;;;33.30;28.96;101411.06;4984924;28;124255;-67
2023/06/10 11:18:26;;;;;;;7.05;4.50;;;;;;;33.40;28.17;101415.31;4989049;28;124524;-67
2023/06/10 11:21:12;;;;;;;7.03;4.57;;;;;;;33.44;28.03;101411.13;4980070;28;114174;-67
2023/06/10 11:23:41;;;;;;;9.18;4.57;;;;;;;33.45;27.57;101408.16;4982179;28;115262;-67